ADDS METAR Data INFO
IDs: Format: Raw Decoded Include TAF

Data at: 0938 UTC 25 Feb 2018

KJCT 250851Z AUTO 30005KT 8SM CLR 07/06 A3000 RMK AO2 SLP134 T00670056 58001 TSNO
KJCT 250751Z AUTO 29003KT 8SM SCT100 07/07 A3001 RMK AO2 SLP138 T00720067 TSNO
KJCT 250651Z AUTO 28004KT 9SM CLR 08/07 A3001 RMK AO2 SLP136 T00830067 TSNO
KJCT 250551Z AUTO 29004KT 8SM CLR 09/07 A3000 RMK AO2 SLP135 T00890072 10228 20089 402670089 53006 TSNO
KJCT 250451Z AUTO 29004KT 8SM CLR 10/08 A3000 RMK AO2 SLP133 T01000078 TSNO
KJCT 250351Z AUTO 33003KT 10SM CLR 12/08 A2998 RMK AO2 SLP127 T01220083 TSNO
KJCT 250251Z AUTO 08004KT 10SM CLR 14/09 A2998 RMK AO2 SLP127 T01440089 51032 TSNO
KJCT 250151Z AUTO 07003KT 10SM CLR 18/08 A2996 RMK AO2 SLP118 T01780078 TSNO
KJCT 250051Z AUTO 04004KT 10SM CLR 19/07 A2992 RMK AO2 SLP104 T01940067 TSNO
KJCT 242351Z AUTO 36009KT 10SM CLR 23/06 A2989 RMK AO2 SLP089 T02280056 10267 20228 53013 TSNO
KJCT 242251Z AUTO 32006KT 10SM CLR 26/06 A2985 RMK AO2 SLP077 T02610061 TSNO
KJCT 242151Z AUTO 28005KT 10SM CLR 25/08 A2984 RMK AO2 SLP075 T02500078 TSNO